KTIF

Thomas County Airport

Thedford, Nebraska, USA
METAR KTIF 190655Z AUTO 23006KT 10SM CLR 04/M01 A2978 RMK AO2 T00351007
Observed Flight Rules
Jan-19 @ 06:55 UTC (24 minutes ago) Visual Flight Rules
Wind Visibility Clouds
230° at 6 knots 10 miles
  • Clear skies
Temperatures Readings
Current 4°C / 39°F
Dewpoint -1°C / 30°F
Humidity 70%
Altimeter 29.78" Hg
Pressure 1008 hPa
Elevation 892
METAR KTIF 190655Z AUTO 23006KT 10SM CLR 04/M01 A2978 RMK AO2 T00351007
Observed Flight Rules
Jan-19 @ 06:55 UTC
(24 minutes ago)
VFR
Wind Visibility
230° at 6 knots 10 miles
Clouds
  • Clear skies
Temperature Dewpoint
4°C / 39°F -1°C / 30°F
Humidity Altimeter Pressure
70% 29.78" Hg 1008 hPa